Time;durP1;ratioP1;P1;durP2;ratioP2;P2;SDS_P1;SDS_P2;PMS_P1;PMS_P2;Temp;Humidity;BMP_temperature;BMP_pressure;BME280_temperature;BME280_humidity;BME280_pressure;Samples;Min_cycle;Max_cycle;Signal;HPM_P1;HPM_P2
2021/01/06 00:02:13;;;;;;;99.88;46.00;;;;;;;-1.11;100.00;101272.66;5032805;28;20104;-74
2021/01/06 00:04:38;;;;;;;95.25;41.08;;;;;;;-1.00;100.00;101264.00;5032285;28;20021;-75
2021/01/06 00:07:04;;;;;;;93.90;43.08;;;;;;;-1.26;100.00;101271.22;5033903;28;20036;-75
2021/01/06 00:09:29;;;;;;;86.82;38.72;;;;;;;-1.13;100.00;101281.53;5032884;28;20021;-74
2021/01/06 00:11:54;;;;;;;78.53;38.33;;;;;;;-1.28;100.00;101286.94;5033901;28;20554;-75
2021/01/06 00:14:20;;;;;;;75.28;36.90;;;;;;;-1.15;100.00;101297.28;5032476;28;20031;-75
2021/01/06 00:16:52;;;;;;;81.25;37.85;;;;;;;-1.18;100.00;101293.16;5031791;28;20025;-75
2021/01/06 00:19:17;;;;;;;88.72;40.05;;;;;;;-1.11;100.00;101295.28;5033416;28;20425;-74
2021/01/06 00:21:43;;;;;;;72.03;34.85;;;;;;;-1.40;100.00;101299.13;5032667;28;20036;-74
2021/01/06 00:24:08;;;;;;;69.57;31.23;;;;;;;-1.27;100.00;101300.81;5029779;28;20022;-73
2021/01/06 00:26:35;;;;;;;53.50;24.55;;;;;;;-0.84;100.00;101292.38;5033778;28;20557;-75
2021/01/06 00:29:00;;;;;;;63.72;28.15;;;;;;;-0.88;100.00;101293.53;5032411;28;20025;-74
2021/01/06 00:31:26;;;;;;;56.80;27.60;;;;;;;-0.85;100.00;101301.94;5033157;28;20033;-75
2021/01/06 00:33:51;;;;;;;80.05;38.72;;;;;;;-0.60;100.00;101295.69;5031687;28;20017;-74
2021/01/06 00:36:20;;;;;;;58.95;28.20;;;;;;;-0.56;100.00;101306.72;5032124;28;20096;-75
2021/01/06 00:38:46;;;;;;;44.40;22.52;;;;;;;-0.40;100.00;101301.13;5032271;28;20036;-75
2021/01/06 00:41:11;;;;;;;42.38;22.38;;;;;;;-0.64;100.00;101293.44;5031911;28;20025;-75
2021/01/06 00:43:37;;;;;;;43.05;20.60;;;;;;;-0.53;100.00;101288.22;5032892;28;20394;-75
2021/01/06 00:46:03;;;;;;;41.05;18.15;;;;;;;-0.48;100.00;101286.91;5031803;28;20029;-75
2021/01/06 00:48:28;;;;;;;51.95;27.80;;;;;;;-0.39;100.00;101289.72;5024422;28;20036;-75
2021/01/06 00:50:54;;;;;;;46.38;21.17;;;;;;;-0.76;100.00;101298.63;5031906;28;20037;-74
2021/01/06 00:53:22;;;;;;;57.22;29.23;;;;;;;-0.83;100.00;101287.03;5031809;28;20458;-75
2021/01/06 00:55:48;;;;;;;50.33;24.88;;;;;;;-0.77;100.00;101290.94;5031936;28;20032;-75
2021/01/06 00:58:14;;;;;;;38.50;17.70;;;;;;;-1.02;100.00;101286.78;5031535;28;20053;-75
2021/01/06 01:00:39;;;;;;;40.83;20.58;;;;;;;-0.58;100.00;101285.13;5032906;28;20441;-74
2021/01/06 01:03:05;;;;;;;35.67;18.00;;;;;;;-0.22;100.00;101284.00;5031699;28;20047;-74
2021/01/06 01:05:32;;;;;;;38.35;19.02;;;;;;;-0.70;100.00;101287.75;5029197;28;20030;-75
2021/01/06 01:07:58;;;;;;;34.88;17.40;;;;;;;-0.87;100.00;101301.25;5031322;28;20029;-74
2021/01/06 01:10:37;;;;;;;36.00;17.40;;;;;;;-0.60;100.00;101300.09;5031606;28;20065;-75
2021/01/06 01:13:09;;;;;;;34.85;17.10;;;;;;;-0.85;100.00;101295.91;5032673;28;20116;-75
2021/01/06 01:15:36;;;;;;;;;;;;;;;-1.13;100.00;101291.97;5031161;28;20102;-75
2021/01/06 01:18:03;;;;;;;50.78;24.38;;;;;;;-1.16;100.00;101295.63;5031552;28;19913;-75
2021/01/06 01:20:29;;;;;;;44.55;21.20;;;;;;;-1.04;100.00;101292.09;5034347;28;20040;-74
2021/01/06 01:22:54;;;;;;;39.63;20.63;;;;;;;-1.11;100.00;101290.09;5031601;28;20029;-75
2021/01/06 01:25:24;;;;;;;34.25;15.82;;;;;;;-1.02;100.00;101285.00;5031391;28;20045;-75
2021/01/06 01:27:49;;;;;;;34.33;17.75;;;;;;;-1.16;100.00;101286.03;5027680;28;20043;-75
2021/01/06 01:30:18;;;;;;;38.90;16.83;;;;;;;-1.32;100.00;101295.13;5031412;28;20123;-75
2021/01/06 01:32:45;;;;;;;31.80;16.17;;;;;;;-1.06;100.00;101282.72;5031631;28;20390;-75
2021/01/06 01:35:12;;;;;;;34.83;17.40;;;;;;;-1.42;100.00;101288.00;5031282;28;20017;-74
2021/01/06 01:37:41;;;;;;;42.88;21.83;;;;;;;-1.47;100.00;101294.50;5032234;28;20514;-74
2021/01/06 01:40:08;;;;;;;33.00;17.83;;;;;;;-1.55;100.00;101299.44;5031200;28;20029;-75
2021/01/06 01:42:33;;;;;;;39.38;20.63;;;;;;;-1.44;100.00;101299.47;5031281;28;20041;-74
2021/01/06 01:45:02;;;;;;;32.85;17.60;;;;;;;-1.40;100.00;101295.69;5031247;28;20033;-75
2021/01/06 01:47:52;;;;;;;35.22;17.77;;;;;;;-1.46;100.00;101304.78;5030999;28;20061;-74
2021/01/06 01:50:18;;;;;;;38.10;18.00;;;;;;;-1.32;100.00;101309.00;5032049;28;20102;-75
2021/01/06 01:52:51;;;;;;;38.47;19.85;;;;;;;-1.30;100.00;101308.84;5031139;28;20037;-75
2021/01/06 01:55:20;;;;;;;44.78;21.52;;;;;;;-1.27;100.00;101311.25;5031026;28;20037;-75
2021/01/06 01:57:53;;;;;;;40.45;21.27;;;;;;;-1.07;100.00;101307.97;5039166;28;20060;-74
2021/01/06 02:00:21;;;;;;;30.02;15.35;;;;;;;-1.04;100.00;101309.53;5030172;28;20034;-74
2021/01/06 02:03:10;;;;;;;31.70;16.67;;;;;;;-0.87;100.00;101303.88;5030843;28;20029;-74
2021/01/06 02:05:56;;;;;;;30.35;15.32;;;;;;;-0.80;100.00;101304.22;5034005;28;20466;-75
2021/01/06 02:08:29;;;;;;;32.50;15.85;;;;;;;-0.93;100.00;101292.13;5034888;28;20025;-74
2021/01/06 02:11:00;;;;;;;30.70;16.33;;;;;;;-0.89;100.00;101291.88;5034956;28;20041;-74
2021/01/06 02:14:01;;;;;;;35.58;18.20;;;;;;;-1.26;100.00;101299.88;5034766;28;20029;-75
2021/01/06 02:16:37;;;;;;;34.20;16.15;;;;;;;-1.11;100.00;101292.69;5021646;28;20041;-74
2021/01/06 02:19:03;;;;;;;44.15;23.75;;;;;;;-0.64;100.00;101291.63;5034816;28;20032;-75
2021/01/06 02:21:29;;;;;;;31.15;15.02;;;;;;;-0.84;100.00;101289.75;5033064;28;20026;-75
2021/01/06 02:23:57;;;;;;;26.05;14.20;;;;;;;-1.03;100.00;101298.13;5034769;28;20064;-75
2021/01/06 02:26:25;;;;;;;31.73;16.92;;;;;;;-1.14;100.00;101305.97;5034549;28;20382;-75
2021/01/06 02:28:51;;;;;;;33.00;16.90;;;;;;;-1.41;100.00;101300.06;5038078;28;20021;-74
2021/01/06 02:31:18;;;;;;;37.70;20.17;;;;;;;-1.23;100.00;101294.44;5036192;28;20034;-74
2021/01/06 02:33:44;;;;;;;29.02;14.77;;;;;;;-1.31;100.00;101294.19;5039957;28;20048;-75
2021/01/06 02:36:10;;;;;;;32.35;16.50;;;;;;;-1.27;100.00;101295.59;5034408;28;20025;-74
2021/01/06 02:38:35;;;;;;;27.98;16.70;;;;;;;-1.06;100.00;101291.41;5014813;28;20041;-75
2021/01/06 02:41:01;;;;;;;31.92;16.45;;;;;;;-1.36;100.00;101294.53;5031063;28;20040;-74
2021/01/06 02:43:28;;;;;;;34.88;19.08;;;;;;;-1.34;100.00;101302.22;5035208;28;20030;-74
2021/01/06 02:45:55;;;;;;;31.40;17.13;;;;;;;-1.49;100.00;101301.59;5034265;28;20029;-74
2021/01/06 02:48:22;;;;;;;32.35;16.45;;;;;;;-1.48;100.00;101303.28;5034163;28;20127;-75
2021/01/06 02:50:52;;;;;;;31.65;17.42;;;;;;;-1.60;100.00;101310.22;5035372;28;20374;-75
2021/01/06 02:53:28;;;;;;;33.00;17.52;;;;;;;-1.51;100.00;101317.34;5034065;28;20114;-74
2021/01/06 02:55:55;;;;;;;38.40;20.15;;;;;;;-1.38;100.00;101315.47;5038699;28;20017;-74
2021/01/06 02:58:23;;;;;;;31.25;17.48;;;;;;;-1.38;100.00;101315.47;5033963;28;20140;-74
2021/01/06 03:00:53;;;;;;;32.85;17.10;;;;;;;-1.33;100.00;101314.31;5028067;28;20537;-75
2021/01/06 03:03:23;;;;;;;32.72;16.95;;;;;;;-1.26;100.00;101307.72;5030876;28;20112;-74
2021/01/06 03:06:03;;;;;;;33.28;17.20;;;;;;;-1.26;100.00;101300.72;5032909;28;20021;-74
2021/01/06 03:08:28;;;;;;;28.35;14.93;;;;;;;-1.27;100.00;101296.47;5034090;28;20087;-74
2021/01/06 03:10:55;;;;;;;27.95;15.50;;;;;;;-1.22;100.00;101304.75;5032122;28;20530;-75
2021/01/06 03:13:20;;;;;;;30.15;16.13;;;;;;;-1.09;100.00;101294.25;5031054;28;20056;-74
2021/01/06 03:15:45;;;;;;;30.27;17.20;;;;;;;-1.35;100.00;101300.56;5031437;28;20514;-75
2021/01/06 03:18:11;;;;;;;28.02;16.17;;;;;;;-1.52;100.00;101301.81;5032673;28;20022;-74
2021/01/06 03:20:44;;;;;;;29.25;17.40;;;;;;;-1.35;100.00;101311.00;5032386;28;20048;-74
2021/01/06 03:23:28;;;;;;;31.02;15.80;;;;;;;-1.44;100.00;101300.31;5032993;28;20120;-74
2021/01/06 03:25:57;;;;;;;33.30;16.77;;;;;;;-1.58;100.00;101300.47;5034069;28;20044;-75
2021/01/06 03:28:23;;;;;;;29.95;15.73;;;;;;;-1.69;100.00;101308.28;5030451;28;20033;-75
2021/01/06 03:30:50;;;;;;;30.52;16.48;;;;;;;-1.81;100.00;101309.16;5032842;28;20026;-74
2021/01/06 03:33:34;;;;;;;37.85;19.58;;;;;;;-1.72;100.00;101314.53;5032729;28;20037;-75
2021/01/06 03:36:14;;;;;;;37.65;18.67;;;;;;;-1.62;100.00;101309.47;5033702;28;20018;-74
2021/01/06 03:38:48;;;;;;;34.83;18.23;;;;;;;-1.75;100.00;101311.31;5032655;28;20033;-74
2021/01/06 03:41:15;;;;;;;42.80;21.48;;;;;;;-1.54;100.00;101314.09;5033679;28;20028;-74
2021/01/06 03:43:48;;;;;;;32.33;18.10;;;;;;;-1.78;100.00;101319.38;5032335;28;20524;-75
2021/01/06 03:46:29;;;;;;;40.95;21.02;;;;;;;-1.65;100.00;101312.31;5032396;28;20028;-74
2021/01/06 03:48:55;;;;;;;35.57;19.00;;;;;;;-1.82;100.00;101308.31;5032322;28;20057;-74
2021/01/06 03:51:25;;;;;;;49.55;26.63;;;;;;;-1.61;100.00;101308.53;5033377;28;20057;-75
2021/01/06 03:53:54;;;;;;;40.35;21.80;;;;;;;-1.55;100.00;101309.84;5032786;28;20025;-74
2021/01/06 03:56:29;;;;;;;34.75;18.25;;;;;;;-1.19;100.00;101307.13;5031973;28;20437;-75
2021/01/06 03:59:18;;;;;;;39.65;19.17;;;;;;;-1.42;100.00;101302.81;5024308;28;20043;-74
2021/01/06 04:01:57;;;;;;;35.22;19.95;;;;;;;-1.55;100.00;101305.47;5033715;28;20029;-74
2021/01/06 04:04:40;;;;;;;35.58;19.50;;;;;;;-1.70;100.00;101306.59;5003119;28;20363;-74
2021/01/06 04:07:27;;;;;;;39.30;20.60;;;;;;;-1.64;100.00;101312.19;5017197;28;20049;-75
2021/01/06 04:10:02;;;;;;;41.83;21.70;;;;;;;-1.55;100.00;101312.47;5017115;28;20032;-74
2021/01/06 04:12:27;;;;;;;42.42;21.40;;;;;;;-1.69;100.00;101313.47;5017014;28;20030;-74
2021/01/06 04:14:53;;;;;;;38.58;22.05;;;;;;;-1.89;100.00;101309.72;5016938;28;20029;-74
2021/01/06 04:17:25;;;;;;;58.15;32.10;;;;;;;-1.97;100.00;101305.03;5016898;28;20017;-74
2021/01/06 04:19:56;;;;;;;57.67;32.38;;;;;;;-1.95;100.00;101307.53;5016974;28;20029;-73
2021/01/06 04:22:45;;;;;;;57.50;32.47;;;;;;;-1.92;100.00;101308.16;5016858;28;20029;-73
2021/01/06 04:25:50;;;;;;;57.45;30.95;;;;;;;-2.18;100.00;101296.16;5016308;28;20099;-73
2021/01/06 04:28:19;;;;;;;53.75;28.15;;;;;;;-1.78;100.00;101303.75;4987905;28;20492;-74
2021/01/06 04:30:47;;;;;;;58.15;30.27;;;;;;;-1.77;100.00;101302.78;5031333;28;20033;-74
2021/01/06 04:33:40;;;;;;;54.33;28.35;;;;;;;-1.76;100.00;101312.25;5019144;28;20038;-74
2021/01/06 04:36:14;;;;;;;46.90;23.90;;;;;;;-1.71;100.00;101304.94;5010363;28;20034;-74
2021/01/06 04:38:44;;;;;;;45.53;25.08;;;;;;;-1.61;100.00;101303.31;5014348;28;20022;-73
2021/01/06 04:41:31;;;;;;;53.90;28.10;;;;;;;-1.93;100.00;101301.28;5013020;28;20029;-73
2021/01/06 04:44:05;;;;;;;45.35;25.15;;;;;;;-1.91;100.00;101299.38;5029475;28;20393;-74
2021/01/06 04:46:59;;;;;;;46.10;24.33;;;;;;;-1.75;100.00;101293.91;5031706;28;20025;-73
2021/01/06 04:49:51;;;;;;;45.08;22.23;;;;;;;-2.06;100.00;101297.88;5031338;28;20026;-74
2021/01/06 04:52:19;;;;;;;45.63;21.73;;;;;;;-1.93;100.00;101298.69;5033679;28;20090;-74
2021/01/06 04:54:53;;;;;;;52.63;27.17;;;;;;;-1.98;100.00;101298.19;5016293;28;20514;-74
2021/01/06 04:57:44;;;;;;;45.38;24.27;;;;;;;-2.05;100.00;101291.75;5016125;28;20064;-74
2021/01/06 05:00:42;;;;;;;48.80;23.92;;;;;;;-2.13;100.00;101292.28;5016006;28;20025;-75
2021/01/06 05:03:19;;;;;;;49.30;24.65;;;;;;;-2.04;100.00;101282.19;5015617;28;20037;-74
2021/01/06 05:05:51;;;;;;;51.63;26.50;;;;;;;-2.21;100.00;101285.97;5033736;28;20025;-74
2021/01/06 05:08:54;;;;;;;59.38;32.22;;;;;;;-1.98;100.00;101287.75;5032509;28;20033;-74
2021/01/06 05:11:32;;;;;;;54.88;28.02;;;;;;;-2.13;100.00;101286.25;5032484;28;20374;-74
2021/01/06 05:14:02;;;;;;;60.90;30.00;;;;;;;-1.96;100.00;101275.47;5032261;28;20048;-74
2021/01/06 05:16:39;;;;;;;61.67;30.98;;;;;;;-2.15;100.00;101281.19;5015431;28;20037;-74
2021/01/06 05:19:14;;;;;;;59.70;29.75;;;;;;;-2.18;100.00;101277.94;5028565;28;20043;-74
2021/01/06 05:21:39;;;;;;;58.55;29.25;;;;;;;-2.14;100.00;101275.03;5030976;28;20036;-74
2021/01/06 05:24:17;;;;;;;42.50;22.38;;;;;;;-2.36;100.00;101275.72;5045599;28;20037;-74
2021/01/06 05:26:46;;;;;;;37.03;17.73;;;;;;;-2.38;100.00;101272.41;5030427;28;20068;-74
2021/01/06 05:29:28;;;;;;;38.75;18.42;;;;;;;-2.38;100.00;101279.38;5032843;28;20025;-74
2021/01/06 05:31:53;;;;;;;31.02;15.45;;;;;;;-2.29;100.00;101273.53;5033845;28;20040;-74
2021/01/06 05:34:18;;;;;;;43.95;21.95;;;;;;;-2.05;100.00;101273.53;5032188;28;20382;-74
2021/01/06 05:36:46;;;;;;;51.97;26.80;;;;;;;-1.77;100.00;101281.94;5042884;28;20444;-73
2021/01/06 05:39:24;;;;;;;63.58;31.13;;;;;;;-1.99;100.00;101275.69;5048187;28;20095;-74
2021/01/06 05:41:54;;;;;;;54.78;27.30;;;;;;;-2.02;100.00;101269.88;5036036;28;20030;-74
2021/01/06 05:44:20;;;;;;;74.10;38.55;;;;;;;-1.80;100.00;101274.38;5035713;28;20099;-74
2021/01/06 05:46:47;;;;;;;56.38;29.38;;;;;;;-1.94;100.00;101275.34;5035125;28;20398;-74
2021/01/06 05:49:23;;;;;;;52.53;28.67;;;;;;;-2.09;100.00;101272.94;5041482;28;20103;-74
2021/01/06 05:52:00;;;;;;;49.55;27.15;;;;;;;-2.04;100.00;101272.59;5033079;28;20467;-74
2021/01/06 05:54:41;;;;;;;51.28;28.00;;;;;;;-2.27;100.00;101268.19;5033944;28;20060;-74
2021/01/06 05:57:31;;;;;;;55.63;27.60;;;;;;;-2.07;100.00;101265.81;5035282;28;20128;-73
2021/01/06 06:00:20;;;;;;;48.17;25.90;;;;;;;-1.95;100.00;101269.31;5048924;28;20502;-73
2021/01/06 06:03:16;;;;;;;42.35;23.83;;;;;;;-1.99;100.00;101269.66;5039286;28;20130;-74
2021/01/06 06:06:02;;;;;;;42.33;20.67;;;;;;;-1.94;100.00;101273.56;5033218;28;20508;-73
2021/01/06 06:08:46;;;;;;;40.13;21.48;;;;;;;-1.90;100.00;101276.81;5034438;28;20128;-73
2021/01/06 06:11:39;;;;;;;43.28;22.02;;;;;;;-1.65;100.00;101281.06;5034117;28;20025;-73
2021/01/06 06:14:40;;;;;;;45.75;23.17;;;;;;;-1.56;100.00;101279.53;5034817;28;20033;-73
2021/01/06 06:17:31;;;;;;;42.97;22.85;;;;;;;-1.33;100.00;101281.28;5032939;28;20099;-73
2021/01/06 06:20:13;;;;;;;56.00;29.58;;;;;;;-1.15;100.00;101284.25;5013710;28;20040;-73
2021/01/06 06:23:01;;;;;;;58.60;31.02;;;;;;;-1.10;100.00;101289.13;5053078;28;20021;-73
2021/01/06 06:25:35;;;;;;;60.92;30.17;;;;;;;-0.90;100.00;101285.84;5053622;28;20082;-74
2021/01/06 06:28:23;;;;;;;63.72;31.63;;;;;;;-0.98;100.00;101288.19;5051136;28;20076;-75
2021/01/06 06:30:54;;;;;;;100.30;49.85;;;;;;;-0.77;100.00;101291.75;5039054;28;20032;-75
2021/01/06 06:33:32;;;;;;;63.60;31.42;;;;;;;-0.77;100.00;101301.38;5037005;28;20451;-75
2021/01/06 06:36:01;;;;;;;56.88;32.22;;;;;;;-0.84;100.00;101302.81;5052761;28;20033;-75
2021/01/06 06:38:45;;;;;;;76.63;40.60;;;;;;;-0.92;100.00;101306.81;5063675;28;20028;-75
2021/01/06 06:41:23;;;;;;;120.68;58.55;;;;;;;-0.85;100.00;101312.38;5054428;28;20021;-75
2021/01/06 06:43:51;;;;;;;95.97;51.83;;;;;;;-0.86;100.00;101308.13;5046064;28;20094;-78
2021/01/06 06:46:46;;;;;;;125.80;61.33;;;;;;;-0.83;100.00;101301.84;5056923;28;20025;-78
2021/01/06 06:49:25;;;;;;;216.77;89.88;;;;;;;-0.76;100.00;101306.47;5040369;28;20451;-79
2021/01/06 06:51:58;;;;;;;250.05;106.93;;;;;;;-0.78;100.00;101307.56;5055738;28;20021;-78
2021/01/06 06:54:37;;;;;;;267.52;112.07;;;;;;;-0.79;100.00;101303.25;5035819;28;20029;-78
2021/01/06 06:57:12;;;;;;;248.80;113.18;;;;;;;-0.58;100.00;101309.44;5041977;28;20060;-78
2021/01/06 06:59:54;;;;;;;249.52;112.63;;;;;;;-0.56;100.00;101301.50;5027280;28;20489;-78
2021/01/06 07:02:20;;;;;;;249.75;114.30;;;;;;;-0.44;100.00;101304.94;5022730;28;20025;-78
2021/01/06 07:04:57;;;;;;;241.27;108.97;;;;;;;-0.40;100.00;101308.94;5023680;28;20044;-78
2021/01/06 07:07:41;;;;;;;250.63;108.72;;;;;;;-0.40;100.00;101317.59;5034418;28;20418;-78
2021/01/06 07:10:20;;;;;;;254.82;111.57;;;;;;;-0.21;100.00;101322.25;5022593;28;20467;-78
2021/01/06 07:12:47;;;;;;;206.15;96.43;;;;;;;-0.18;100.00;101321.13;5044722;28;20135;-78
2021/01/06 07:15:23;;;;;;;212.98;102.25;;;;;;;-0.15;100.00;101313.06;5028321;28;20020;-78
2021/01/06 07:17:49;;;;;;;243.05;131.65;;;;;;;-0.06;100.00;101315.78;5040064;28;20021;-78
2021/01/06 07:20:31;;;;;;;269.55;146.73;;;;;;;0.01;100.00;101318.75;5046443;28;20025;-78
2021/01/06 07:23:02;;;;;;;;;;;;;;;0.09;100.00;101320.72;5043780;28;20399;-78
2021/01/06 07:25:35;;;;;;;212.30;106.97;;;;;;;0.48;100.00;101321.06;5029495;28;19971;-78
2021/01/06 07:28:05;;;;;;;207.57;107.63;;;;;;;0.69;100.00;101316.69;5025768;28;20033;-77
2021/01/06 07:30:42;;;;;;;334.70;186.98;;;;;;;0.75;100.00;101317.97;5038925;28;20033;-78
2021/01/06 07:33:28;;;;;;;212.70;113.07;;;;;;;0.83;100.00;101313.75;5028952;28;20442;-78
2021/01/06 07:36:05;;;;;;;178.18;93.18;;;;;;;1.25;100.00;101305.06;5034914;28;20033;-78
2021/01/06 07:38:34;;;;;;;136.50;67.00;;;;;;;2.03;100.00;101306.94;5036485;28;20032;-78
2021/01/06 07:41:00;;;;;;;76.55;39.72;;;;;;;2.18;100.00;101312.63;5041246;28;20062;-79
2021/01/06 07:43:29;;;;;;;106.80;50.80;;;;;;;3.08;100.00;101321.09;5042689;28;20030;-78
2021/01/06 07:45:58;;;;;;;98.95;49.05;;;;;;;2.31;100.00;101314.16;5022079;28;20071;-78
2021/01/06 07:48:30;;;;;;;87.53;40.17;;;;;;;2.22;100.00;101319.25;5023665;28;20044;-78
2021/01/06 07:51:14;;;;;;;226.98;71.82;;;;;;;1.94;100.00;101317.41;5037640;28;20095;-78
2021/01/06 07:53:50;;;;;;;428.00;144.98;;;;;;;1.68;100.00;101319.69;5023598;28;20124;-78
2021/01/06 07:56:43;;;;;;;215.02;85.70;;;;;;;1.37;100.00;101324.94;5040352;28;20025;-79
2021/01/06 07:59:44;;;;;;;237.10;91.60;;;;;;;1.95;100.00;101329.53;5019599;28;20049;-78
2021/01/06 08:02:17;;;;;;;213.40;86.57;;;;;;;1.77;100.00;101324.13;5007508;28;20099;-78
2021/01/06 08:04:51;;;;;;;194.85;80.95;;;;;;;1.92;100.00;101322.78;5023957;28;20033;-77
2021/01/06 08:07:21;;;;;;;202.07;94.43;;;;;;;2.28;100.00;101331.78;5039888;28;20116;-78
2021/01/06 08:09:48;;;;;;;199.90;94.50;;;;;;;2.49;100.00;101333.47;5041290;28;20369;-78
2021/01/06 08:12:24;;;;;;;188.65;91.53;;;;;;;2.81;100.00;101340.19;5041220;28;20039;-78
2021/01/06 08:15:05;;;;;;;184.02;90.10;;;;;;;2.63;100.00;101332.19;5026236;28;20102;-79
2021/01/06 08:17:43;;;;;;;144.52;73.15;;;;;;;2.94;100.00;101332.88;5024257;28;20126;-78
2021/01/06 08:20:11;;;;;;;129.40;65.20;;;;;;;3.16;100.00;101334.34;5021478;28;20190;-78
2021/01/06 08:22:50;;;;;;;127.85;63.33;;;;;;;2.58;100.00;101337.88;5028105;28;20044;-78
2021/01/06 08:25:29;;;;;;;80.00;39.50;;;;;;;2.04;100.00;101339.22;5032797;28;20037;-79
2021/01/06 08:27:54;;;;;;;76.00;38.33;;;;;;;3.02;100.00;101347.91;5042327;28;20134;-78
2021/01/06 08:30:23;;;;;;;59.58;29.20;;;;;;;3.51;100.00;101338.09;5040020;28;20112;-78
2021/01/06 08:33:01;;;;;;;107.57;42.63;;;;;;;3.67;100.00;101346.19;5019630;28;20034;-78
2021/01/06 08:35:32;;;;;;;150.00;52.10;;;;;;;3.75;100.00;101346.28;5021639;28;20075;-78
2021/01/06 08:37:57;;;;;;;92.25;49.95;;;;;;;4.11;99.22;101346.34;5038245;28;20033;-78
2021/01/06 08:40:32;;;;;;;129.15;55.22;;;;;;;4.10;99.46;101339.44;5031978;28;20044;-78
2021/01/06 08:43:00;;;;;;;92.80;38.53;;;;;;;3.43;100.00;101339.63;5022807;28;20043;-78
2021/01/06 08:45:34;;;;;;;70.03;32.33;;;;;;;4.02;97.81;101344.59;5024545;28;20071;-78
2021/01/06 08:48:36;;;;;;;60.90;30.73;;;;;;;4.35;96.47;101358.91;5038616;28;20296;-77
2021/01/06 08:51:15;;;;;;;74.40;36.83;;;;;;;4.09;99.06;101343.88;5036073;28;20066;-77
2021/01/06 08:53:43;;;;;;;65.95;30.23;;;;;;;4.06;98.71;101349.44;5022185;28;20355;-78
2021/01/06 08:56:24;;;;;;;61.63;28.65;;;;;;;4.59;98.53;101346.00;5022272;28;20153;-78
2021/01/06 08:58:52;;;;;;;46.70;26.60;;;;;;;4.40;98.52;101333.00;5037340;28;20110;-78
2021/01/06 09:01:36;;;;;;;64.95;37.25;;;;;;;4.63;98.13;101328.13;5027288;28;20116;-78
2021/01/06 09:04:13;;;;;;;59.90;37.35;;;;;;;4.88;98.26;101323.88;5037337;28;20021;-78
2021/01/06 09:06:52;;;;;;;48.38;27.55;;;;;;;5.01;99.07;101324.28;5026137;28;20026;-78
2021/01/06 09:09:53;;;;;;;72.72;35.17;;;;;;;5.40;97.86;101318.56;5036165;28;20037;-78
2021/01/06 09:12:58;;;;;;;67.18;33.50;;;;;;;5.84;95.43;101320.22;5032537;28;20029;-78
2021/01/06 09:15:49;;;;;;;106.60;49.78;;;;;;;7.04;92.04;101316.22;5018871;28;20144;-78
2021/01/06 09:18:30;;;;;;;53.83;31.15;;;;;;;7.08;86.77;101318.38;5014223;28;20454;-79
2021/01/06 09:21:08;;;;;;;58.90;27.08;;;;;;;8.33;81.91;101312.34;5040108;28;20493;-78
2021/01/06 09:23:34;;;;;;;49.78;25.35;;;;;;;9.07;78.64;101321.31;5037992;28;20052;-78
2021/01/06 09:26:00;;;;;;;68.05;31.70;;;;;;;9.40;77.26;101313.84;5021733;28;20033;-76
2021/01/06 09:28:28;;;;;;;56.25;29.08;;;;;;;10.13;73.54;101305.94;5023087;28;20029;-78
2021/01/06 09:30:53;;;;;;;56.85;33.00;;;;;;;10.40;72.35;101314.19;5022981;28;20022;-77
2021/01/06 09:33:41;;;;;;;58.75;36.03;;;;;;;10.78;70.52;101301.44;5036574;28;20052;-77
2021/01/06 09:36:07;;;;;;;45.30;27.92;;;;;;;11.65;66.77;101297.47;5020061;28;20051;-77
2021/01/06 09:38:33;;;;;;;44.78;27.33;;;;;;;12.24;64.95;101290.69;5019456;28;20032;-77
2021/01/06 09:41:01;;;;;;;54.47;33.78;;;;;;;13.09;61.58;101290.84;5037208;28;20025;-77
2021/01/06 09:43:39;;;;;;;64.15;35.55;;;;;;;13.37;59.81;101280.75;5038107;28;20021;-77
2021/01/06 09:46:22;;;;;;;72.82;36.38;;;;;;;12.63;62.20;101281.06;5022007;28;20043;-77
2021/01/06 09:48:54;;;;;;;54.67;28.75;;;;;;;12.97;63.33;101272.81;5020453;28;20029;-77
2021/01/06 09:51:20;;;;;;;52.60;30.77;;;;;;;13.75;60.91;101263.97;5026425;28;20390;-77
2021/01/06 09:53:51;;;;;;;60.35;36.83;;;;;;;13.37;58.73;101262.06;5024099;28;20400;-77
2021/01/06 09:56:19;;;;;;;49.40;26.05;;;;;;;14.39;58.38;101262.09;5037312;28;20037;-77
2021/01/06 09:58:47;;;;;;;51.55;27.63;;;;;;;15.01;55.90;101254.19;5021953;28;20079;-76
2021/01/06 10:01:19;;;;;;;22.42;13.85;;;;;;;15.33;56.01;101250.28;5023061;28;20087;-76
2021/01/06 10:03:48;;;;;;;24.38;14.80;;;;;;;14.97;55.39;101255.66;5032670;28;20021;-78
2021/01/06 10:06:31;;;;;;;21.17;11.93;;;;;;;14.40;56.19;101258.38;5025765;28;20093;-77
2021/01/06 10:09:05;;;;;;;22.48;13.68;;;;;;;14.94;55.25;101250.75;5034427;28;20386;-75
2021/01/06 10:11:58;;;;;;;14.02;9.23;;;;;;;15.21;54.32;101249.41;5025561;28;20458;-76
2021/01/06 10:14:51;;;;;;;11.80;7.78;;;;;;;14.69;56.18;101240.09;5027203;28;20121;-78
2021/01/06 10:17:23;;;;;;;;;;;;;;;16.58;51.43;101229.13;5018415;28;20489;-78
2021/01/06 10:20:00;;;;;;;16.20;7.00;;;;;;;15.97;52.81;101225.78;5024199;28;20012;-78
2021/01/06 10:22:32;;;;;;;13.07;9.57;;;;;;;16.26;50.89;101219.56;5035259;28;20470;-78
2021/01/06 10:25:17;;;;;;;10.60;6.43;;;;;;;17.27;50.30;101215.88;5031931;28;20061;-77
2021/01/06 10:28:10;;;;;;;7.47;5.60;;;;;;;16.15;51.08;101216.84;5041437;28;20536;-76
2021/01/06 10:30:35;;;;;;;;;;;;;;;16.94;49.04;101204.78;5023734;28;20032;-76
2021/01/06 10:33:09;;;;;;;4.32;3.28;;;;;;;16.98;47.08;101201.63;5025184;28;19927;-76
2021/01/06 10:35:55;;;;;;;3.38;3.08;;;;;;;17.63;45.57;101199.38;5025684;28;20021;-77
2021/01/06 10:38:39;;;;;;;4.50;3.95;;;;;;;17.06;48.18;101209.28;5042568;28;20473;-77
2021/01/06 10:41:37;;;;;;;11.25;4.70;;;;;;;17.83;47.07;101192.78;5041425;28;20033;-77
2021/01/06 10:44:27;;;;;;;4.90;2.83;;;;;;;16.35;46.71;101187.06;4999833;28;20049;-77
2021/01/06 10:46:53;;;;;;;17.00;8.85;;;;;;;17.30;45.82;101197.41;5031209;28;20489;-77
2021/01/06 10:49:18;;;;;;;4.43;3.33;;;;;;;16.46;46.70;101208.50;5033723;28;20037;-77
2021/01/06 10:51:47;;;;;;;5.07;2.95;;;;;;;16.62;47.06;101203.50;5023856;28;20043;-76
2021/01/06 10:54:13;;;;;;;6.57;5.53;;;;;;;17.51;45.57;101195.94;5041801;28;20378;-77
2021/01/06 10:56:41;;;;;;;6.53;2.47;;;;;;;17.35;44.96;101192.16;5039599;28;20047;-77
2021/01/06 10:59:06;;;;;;;4.40;2.10;;;;;;;17.47;44.71;101186.75;5026524;28;20094;-77
2021/01/06 11:02:01;;;;;;;11.50;4.63;;;;;;;16.74;46.12;101188.19;5032355;28;20033;-77
2021/01/06 11:04:45;;;;;;;9.18;5.50;;;;;;;17.54;45.86;101184.72;5017673;28;20159;-78
2021/01/06 11:07:10;;;;;;;11.23;4.68;;;;;;;18.16;45.06;101193.88;5031274;28;20044;-79
2021/01/06 11:09:38;;;;;;;6.97;2.80;;;;;;;17.76;43.85;101187.53;5023636;28;20034;-78
2021/01/06 11:12:42;;;;;;;6.07;3.55;;;;;;;18.59;40.10;101195.03;5043527;28;20084;-77
2021/01/06 11:15:23;;;;;;;3.08;2.70;;;;;;;17.86;41.85;101186.94;5023036;28;20064;-77
2021/01/06 11:18:17;;;;;;;5.78;3.90;;;;;;;18.37;41.76;101197.69;5026865;28;20417;-76
2021/01/06 11:21:04;;;;;;;6.80;3.67;;;;;;;18.54;39.59;101193.88;5030923;28;20060;-76
2021/01/06 11:23:30;;;;;;;3.92;1.88;;;;;;;19.10;39.62;101188.47;5030431;28;20052;-76
2021/01/06 11:26:02;;;;;;;58.83;23.02;;;;;;;18.91;39.30;101193.38;5025707;28;20478;-78
2021/01/06 11:29:05;;;;;;;9.55;3.30;;;;;;;18.32;40.85;101187.66;5038284;28;20043;-76
2021/01/06 11:31:33;;;;;;;28.42;12.00;;;;;;;19.09;38.53;101184.16;5036712;28;20128;-78
2021/01/06 11:34:21;;;;;;;1.50;1.13;;;;;;;19.66;36.08;101175.63;5024854;28;20429;-77
2021/01/06 11:36:59;;;;;;;3.97;2.90;;;;;;;19.00;37.29;101182.94;5035829;28;20025;-77
2021/01/06 11:39:27;;;;;;;4.97;3.45;;;;;;;19.37;37.88;101180.44;5037141;28;20024;-78
2021/01/06 11:41:58;;;;;;;2.38;0.82;;;;;;;18.81;39.03;101182.44;5036885;28;20029;-78